createdAt,value
2023-04-23T00:00:20.326Z,97015.34
2023-04-23T00:02:53.892Z,97002.72
2023-04-23T00:05:28.317Z,97012.59
2023-04-23T00:07:59.931Z,97002.38
2023-04-23T00:10:30.157Z,97011.47
2023-04-23T00:12:59.367Z,97019.72
2023-04-23T00:15:28.622Z,97012.94
2023-04-23T00:17:57.149Z,97021.66
2023-04-23T00:20:25.691Z,97012.94
2023-04-23T00:22:54.128Z,97016.16
2023-04-23T00:25:22.809Z,97009.84
2023-04-23T00:27:52.600Z,97008.22
2023-04-23T00:30:21.174Z,97009.84
2023-04-23T00:32:49.768Z,97010.66
2023-04-23T00:35:18.540Z,97007.09
2023-04-23T00:37:48.117Z,97004.34
2023-04-23T00:40:16.637Z,97010.66
2023-04-23T00:42:46.273Z,97011.47
2023-04-23T00:45:16.682Z,97011.78
2023-04-23T00:47:46.185Z,97009.84
2023-04-23T00:50:14.974Z,97009.84
2023-04-23T00:52:43.481Z,97015.34
2023-04-23T00:55:11.871Z,97015.34
2023-04-23T00:57:40.836Z,97020.06
2023-04-23T01:00:13.916Z,97019.25
2023-04-23T01:02:44.546Z,97019.25
2023-04-23T01:05:16.955Z,97016.81
2023-04-23T01:07:47.641Z,97020.06
2023-04-23T01:10:16.276Z,97020.06
2023-04-23T01:12:44.992Z,97029.44
2023-04-23T01:15:13.520Z,97023.13
2023-04-23T01:17:43.501Z,97024.75
2023-04-23T01:20:12.587Z,97026.69
2023-04-23T01:22:42.433Z,97013.72
2023-04-23T01:25:11.414Z,97030.25
2023-04-23T01:27:40.340Z,97022.00
2023-04-23T01:30:09.869Z,97030.25
2023-04-23T01:32:38.553Z,97034.97
2023-04-23T01:35:08.330Z,97039.66
2023-04-23T01:37:39.300Z,97033.34
2023-04-23T01:40:10.691Z,97039.66
2023-04-23T01:42:39.551Z,97043.56
2023-04-23T01:45:09.955Z,97038.66
2023-04-23T01:47:38.452Z,97053.44
2023-04-23T01:50:07.930Z,97055.38
2023-04-23T01:52:36.307Z,97056.19
2023-04-23T01:55:05.328Z,97061.69
2023-04-23T01:57:35.650Z,97058.13
2023-04-23T02:00:09.134Z,97065.59
2023-04-23T02:02:43.723Z,97065.59
2023-04-23T02:05:14.161Z,97076.59
2023-04-23T02:07:43.719Z,97067.22
2023-04-23T02:10:12.984Z,97066.41
2023-04-23T02:12:42.892Z,97071.09
2023-04-23T02:15:12.287Z,97069.44
2023-04-23T02:17:41.692Z,97074.97
2023-04-23T02:20:11.389Z,97075.75
2023-04-23T02:22:41.274Z,97074.16
2023-04-23T02:25:11.110Z,97073.34
2023-04-23T02:27:39.627Z,97063.94
2023-04-23T02:30:11.386Z,97072.19
2023-04-23T02:32:41.768Z,97074.47
2023-04-23T02:35:10.887Z,97074.97
2023-04-23T02:37:39.741Z,97075.28
2023-04-23T02:40:09.442Z,97076.09
2023-04-23T02:42:38.353Z,97070.59
2023-04-23T02:45:09.989Z,97073.34
2023-04-23T02:47:38.779Z,97074.16
2023-04-23T02:50:08.485Z,97076.09
2023-04-23T02:52:37.131Z,97075.28
2023-04-23T02:55:07.120Z,97077.22
2023-04-23T02:57:35.810Z,97077.22
2023-04-23T03:00:06.397Z,97068.97
2023-04-23T03:02:43.978Z,97070.09
2023-04-23T03:05:12.738Z,97077.22
2023-04-23T03:07:41.257Z,97075.59
2023-04-23T03:10:10.259Z,97079.97
2023-04-23T03:12:39.177Z,97077.22
2023-04-23T03:15:08.790Z,97089.38
2023-04-23T03:17:38.850Z,97081.94
2023-04-23T03:20:11.456Z,97087.44
2023-04-23T03:22:40.509Z,97086.63
2023-04-23T03:25:09.810Z,97086.63
2023-04-23T03:27:40.283Z,97087.75
2023-04-23T03:30:10.297Z,97096.03
2023-04-23T03:32:39.406Z,97091.31
2023-04-23T03:35:10.714Z,97080.31
2023-04-23T03:37:42.849Z,97081.44
2023-04-23T03:40:11.601Z,97079.50
2023-04-23T03:42:42.371Z,97079.50
2023-04-23T03:45:14.465Z,97090.84
2023-04-23T03:47:43.082Z,97080.31
2023-04-23T03:50:13.840Z,97075.59
2023-04-23T03:52:44.941Z,97087.75
2023-04-23T03:55:21.125Z,97080.31
2023-04-23T03:57:50.226Z,97077.88
2023-04-23T04:00:25.118Z,97080.63
2023-04-23T04:02:53.797Z,97078.69
2023-04-23T04:05:26.018Z,97090.53
2023-04-23T04:07:55.911Z,97083.38
2023-04-23T04:10:26.367Z,97080.63
2023-04-23T04:12:55.290Z,97077.88
2023-04-23T04:15:23.838Z,97072.38
2023-04-23T04:17:52.361Z,97076.25
2023-04-23T04:20:20.928Z,97083.38
2023-04-23T04:22:50.783Z,97086.16
2023-04-23T04:25:19.226Z,97088.91
2023-04-23T04:27:47.993Z,97094.41
2023-04-23T04:30:16.884Z,97092.78
2023-04-23T04:32:46.261Z,97093.59
2023-04-23T04:35:15.384Z,97099.91
2023-04-23T04:37:44.742Z,97093.13
2023-04-23T04:40:15.942Z,97084.69
2023-04-23T04:42:46.976Z,97095.53
2023-04-23T04:45:15.415Z,97096.59
2023-04-23T04:47:43.873Z,97094.28
2023-04-23T04:50:12.667Z,97091.66
2023-04-23T04:52:41.157Z,97082.41
2023-04-23T04:55:10.666Z,97084.31
2023-04-23T04:57:40.412Z,97089.66
2023-04-23T05:00:23.587Z,97094.97
2023-04-23T05:02:52.983Z,97090.09
2023-04-23T05:05:24.379Z,97087.13
2023-04-23T05:07:54.131Z,97103.38
2023-04-23T05:10:22.724Z,97087.31
2023-04-23T05:12:52.785Z,97087.78
2023-04-23T05:15:21.336Z,97087.47
2023-04-23T05:17:50.289Z,97088.75
2023-04-23T05:20:18.783Z,97089.88
2023-04-23T05:22:47.405Z,97091.50
2023-04-23T05:25:16.026Z,97084.38
2023-04-23T05:27:44.460Z,97086.47
2023-04-23T05:30:14.599Z,97086.94
2023-04-23T05:32:43.307Z,97087.75
2023-04-23T05:35:11.755Z,97092.44
2023-04-23T05:37:40.207Z,97097.81
2023-04-23T05:40:09.771Z,97101.59
2023-04-23T05:42:38.505Z,97101.91
2023-04-23T05:45:08.991Z,97100.63
2023-04-23T05:47:39.318Z,97113.28
2023-04-23T05:50:08.899Z,97114.22
2023-04-23T05:52:37.515Z,97114.53
2023-04-23T05:55:07.900Z,97108.47
2023-04-23T05:57:37.693Z,97100.00
2023-04-23T06:00:09.744Z,97103.25
2023-04-23T06:02:43.315Z,97099.34
2023-04-23T06:05:12.109Z,97103.38
2023-04-23T06:07:41.332Z,97107.28
2023-04-23T06:10:10.902Z,97099.47
2023-04-23T06:12:39.841Z,97085.22
2023-04-23T06:15:09.643Z,97086.81
2023-04-23T06:17:38.627Z,97090.72
2023-04-23T06:20:11.634Z,97096.25
2023-04-23T06:22:40.267Z,97099.34
2023-04-23T06:25:09.689Z,97088.63
2023-04-23T06:27:38.168Z,97073.69
2023-04-23T06:30:13.584Z,97094.63
2023-04-23T06:32:42.177Z,97093.50
2023-04-23T06:35:12.138Z,97094.63
2023-04-23T06:37:40.669Z,97095.78
2023-04-23T06:40:09.675Z,97099.69
2023-04-23T06:42:38.098Z,97106.34
2023-04-23T06:45:31.407Z,97095.97
2023-04-23T06:47:59.875Z,97094.22
2023-04-23T06:50:29.684Z,97099.09
2023-04-23T06:52:58.126Z,97094.25
2023-04-23T06:55:26.680Z,97090.53
2023-04-23T06:57:55.109Z,97084.56
2023-04-23T07:00:24.090Z,97090.06
2023-04-23T07:02:53.113Z,97080.19
2023-04-23T07:05:21.659Z,97081.00
2023-04-23T07:07:51.483Z,97075.47
2023-04-23T07:10:20.505Z,97069.16
2023-04-23T07:12:49.334Z,97071.09
2023-04-23T07:15:17.874Z,97070.28
2023-04-23T07:17:46.379Z,97071.09
2023-04-23T07:20:15.191Z,97076.94
2023-04-23T07:22:43.750Z,97068.16
2023-04-23T07:25:13.595Z,97069.63
2023-04-23T07:27:42.028Z,97062.16
2023-04-23T07:30:11.372Z,97059.75
2023-04-23T07:32:39.889Z,97061.69
2023-04-23T07:35:10.348Z,97057.31
2023-04-23T07:37:39.244Z,97060.09
2023-04-23T07:40:09.071Z,97063.97
2023-04-23T07:42:39.482Z,97055.22
2023-04-23T07:45:08.829Z,97055.09
2023-04-23T07:47:37.228Z,97057.69
2023-04-23T07:50:06.706Z,97056.41
2023-04-23T07:52:35.147Z,97064.22
2023-04-23T07:55:03.573Z,97059.34
2023-04-23T07:57:32.521Z,97054.66
2023-04-23T08:00:02.340Z,97049.13
2023-04-23T08:02:40.572Z,97049.13
2023-04-23T08:05:10.116Z,97051.91
2023-04-23T08:07:38.767Z,97051.91
2023-04-23T08:10:08.225Z,97038.13
2023-04-23T08:12:36.788Z,97035.81
2023-04-23T08:15:07.664Z,97037.44
2023-04-23T08:17:40.813Z,97039.41
2023-04-23T08:20:10.061Z,97043.78
2023-04-23T08:22:38.496Z,97037.44
2023-04-23T08:25:07.972Z,97039.06
2023-04-23T08:27:36.572Z,97043.78
2023-04-23T08:30:08.594Z,97033.56
2023-04-23T08:32:37.188Z,97038.25
2023-04-23T08:35:06.157Z,97034.03
2023-04-23T08:37:34.780Z,97037.59
2023-04-23T08:40:05.003Z,97032.56
2023-04-23T08:42:41.359Z,97029.78
2023-04-23T08:45:12.957Z,97036.13
2023-04-23T08:47:43.400Z,97031.41
2023-04-23T08:50:13.553Z,97019.56
2023-04-23T08:52:43.664Z,97021.19
2023-04-23T08:55:12.235Z,97014.06
2023-04-23T08:57:41.706Z,97022.34
2023-04-23T09:00:14.013Z,97011.31
2023-04-23T09:02:46.110Z,97019.56
2023-04-23T09:05:15.411Z,97014.88
2023-04-23T09:07:44.095Z,97020.38
2023-04-23T09:10:16.049Z,97016.81
2023-04-23T09:12:46.737Z,96998.66
2023-04-23T09:15:17.890Z,96997.50
2023-04-23T09:17:48.211Z,96995.22
2023-04-23T09:20:17.637Z,96994.75
2023-04-23T09:22:47.880Z,96992.00
2023-04-23T09:25:18.640Z,96994.75
2023-04-23T09:27:48.063Z,96994.28
2023-04-23T09:30:18.942Z,96982.44
2023-04-23T09:32:49.344Z,96978.06
2023-04-23T09:35:19.871Z,96977.75
2023-04-23T09:37:49.974Z,96971.09
2023-04-23T09:40:21.838Z,96975.47
2023-04-23T09:42:52.605Z,96968.31
2023-04-23T09:45:22.743Z,96968.31
2023-04-23T09:47:52.964Z,96969.13
2023-04-23T09:50:32.452Z,96963.63
2023-04-23T09:53:01.203Z,96968.31
2023-04-23T09:55:35.161Z,96960.88
2023-04-23T09:58:05.391Z,96964.44
2023-04-23T10:00:37.436Z,96956.16
2023-04-23T10:03:07.900Z,96961.66
2023-04-23T10:05:59.775Z,96952.59
2023-04-23T10:08:34.480Z,96943.97
2023-04-23T10:11:14.123Z,96935.72
2023-04-23T10:13:49.265Z,96932.63
2023-04-23T10:16:24.379Z,96930.66
2023-04-23T10:19:01.338Z,96932.28
2023-04-23T10:21:46.291Z,96926.78
2023-04-23T10:24:24.739Z,96926.78
2023-04-23T10:26:54.677Z,96923.69
2023-04-23T10:29:27.941Z,96918.50
2023-04-23T10:32:00.311Z,96914.94
2023-04-23T10:34:30.193Z,96910.56
2023-04-23T10:37:00.147Z,96910.91
2023-04-23T10:39:31.649Z,96904.56
2023-04-23T10:42:01.038Z,96904.91
2023-04-23T10:47:16.087Z,96902.16
2023-04-23T10:49:45.539Z,96895.03
2023-04-23T10:52:19.560Z,96895.03
2023-04-23T10:54:51.363Z,96891.78
2023-04-23T10:57:20.394Z,96883.06
2023-04-23T10:59:54.016Z,96888.91
2023-04-23T11:02:26.628Z,96884.88
2023-04-23T11:04:57.337Z,96883.72
2023-04-23T11:07:30.895Z,96878.22
2023-04-23T11:10:01.234Z,96869.94
2023-04-23T11:12:34.102Z,96860.06
2023-04-23T11:15:12.345Z,96862.81
2023-04-23T11:18:03.608Z,96861.66
2023-04-23T11:20:32.205Z,96856.97
2023-04-23T11:23:00.902Z,96850.63
2023-04-23T11:25:30.370Z,96858.25
2023-04-23T11:27:59.511Z,96846.06
2023-04-23T11:30:30.304Z,96835.03
2023-04-23T11:33:01.122Z,96835.03
2023-04-23T11:35:39.487Z,96829.53
2023-04-23T11:38:09.811Z,96835.03
2023-04-23T11:40:40.361Z,96833.44
2023-04-23T11:43:09.673Z,96826.78
2023-04-23T11:45:38.118Z,96823.19
2023-04-23T11:48:07.747Z,96821.25
2023-04-23T11:50:39.067Z,96820.44
2023-04-23T11:53:08.791Z,96822.41
2023-04-23T11:55:38.140Z,96811.38
2023-04-23T11:58:06.700Z,96818.50
2023-04-23T12:00:35.173Z,96807.47
2023-04-23T12:03:05.762Z,96807.47
2023-04-23T12:05:38.146Z,96813.78
2023-04-23T12:08:10.807Z,96812.97
2023-04-23T12:10:47.435Z,96806.66
2023-04-23T12:13:17.014Z,96800.34
2023-04-23T12:15:47.272Z,96801.94
2023-04-23T12:18:15.781Z,96797.59
2023-04-23T12:20:46.035Z,96792.06
2023-04-23T12:23:14.432Z,96783.00
2023-04-23T12:25:43.217Z,96789.31
2023-04-23T12:28:11.683Z,96776.69
2023-04-23T12:30:45.043Z,96771.16
2023-04-23T12:33:13.569Z,96764.03
2023-04-23T12:35:42.932Z,96760.94
2023-04-23T12:38:24.820Z,96759.31
2023-04-23T12:40:53.680Z,96753.81
2023-04-23T12:43:22.326Z,96754.63
2023-04-23T12:45:52.028Z,96749.91
2023-04-23T12:48:20.630Z,96737.28
2023-04-23T12:50:49.484Z,96741.63
2023-04-23T12:53:19.503Z,96735.31
2023-04-23T12:55:50.207Z,96736.94
2023-04-23T12:58:18.609Z,96730.63
2023-04-23T13:00:47.383Z,96723.16
2023-04-23T13:03:17.450Z,96716.81
2023-04-23T13:05:46.027Z,96706.59
2023-04-23T13:08:14.646Z,96712.13
2023-04-23T13:10:43.057Z,96707.41
2023-04-23T13:13:12.917Z,96700.28
2023-04-23T13:15:41.367Z,96693.16
2023-04-23T13:18:09.781Z,96697.19
2023-04-23T13:20:38.190Z,96688.13
2023-04-23T13:23:08.816Z,96688.44
2023-04-23T13:25:37.252Z,96681.34
2023-04-23T13:28:05.713Z,96673.41
2023-04-23T13:30:35.508Z,96672.25
2023-04-23T13:33:03.963Z,96663.19
2023-04-23T13:35:32.410Z,96646.63
2023-04-23T13:38:00.898Z,96652.63
2023-04-23T13:40:29.328Z,96646.63
2023-04-23T13:42:57.719Z,96645.84
2023-04-23T13:45:27.414Z,96645.03
2023-04-23T13:47:57.250Z,96647.31
2023-04-23T13:50:26.085Z,96635.94
2023-04-23T13:52:54.629Z,96631.25
2023-04-23T13:55:23.317Z,96637.22
2023-04-23T13:57:52.030Z,96632.84
2023-04-23T14:00:20.549Z,96630.09
2023-04-23T14:02:49.050Z,96627.34
2023-04-23T14:05:19.033Z,96626.19
2023-04-23T14:07:47.572Z,96621.50
2023-04-23T14:10:16.201Z,96630.09
2023-04-23T14:12:45.659Z,96621.81
2023-04-23T14:15:14.506Z,96619.06
2023-04-23T14:17:44.276Z,96610.00
2023-04-23T14:20:15.498Z,96603.34
2023-04-23T14:22:50.407Z,96599.31
2023-04-23T14:25:26.602Z,96597.72
2023-04-23T14:27:58.112Z,96595.41
2023-04-23T14:30:27.905Z,96594.59
2023-04-23T14:32:57.146Z,96587.47
2023-04-23T14:35:36.009Z,96583.47
2023-04-23T14:38:12.802Z,96563.69
2023-04-23T14:40:41.413Z,96562.91
2023-04-23T14:43:15.517Z,96564.84
2023-04-23T14:45:44.790Z,96560.03
2023-04-23T14:48:13.538Z,96553.25
2023-04-23T14:50:44.990Z,96564.63
2023-04-23T14:53:14.918Z,96549.22
2023-04-23T14:55:43.624Z,96547.66
2023-04-23T14:58:12.063Z,96537.78
2023-04-23T15:00:41.068Z,96531.78
2023-04-23T15:03:11.185Z,96531.00
2023-04-23T15:05:41.572Z,96531.00
2023-04-23T15:08:10.144Z,96526.63
2023-04-23T15:10:40.338Z,96534.09
2023-04-23T15:13:10.056Z,96532.47
2023-04-23T15:15:45.290Z,96530.88
2023-04-23T15:18:14.903Z,96530.88
2023-04-23T15:20:44.364Z,96526.50
2023-04-23T15:23:12.819Z,96523.75
2023-04-23T15:25:42.651Z,96521.00
2023-04-23T15:28:11.234Z,96515.84
2023-04-23T15:30:40.737Z,96526.03
2023-04-23T15:33:09.240Z,96519.72
2023-04-23T15:35:37.851Z,96515.03
2023-04-23T15:38:06.250Z,96507.91
2023-04-23T15:40:42.028Z,96500.78
2023-04-23T15:43:13.610Z,96499.19
2023-04-23T15:45:42.659Z,96502.75
2023-04-23T15:48:11.103Z,96497.56
2023-04-23T15:50:39.635Z,96503.88
2023-04-23T15:53:08.188Z,96506.31
2023-04-23T15:55:38.831Z,96498.50
2023-04-23T15:58:07.883Z,96501.72
2023-04-23T16:00:37.657Z,96500.56
2023-04-23T16:03:07.003Z,96497.13
2023-04-23T16:05:37.111Z,96492.06
2023-04-23T16:08:05.821Z,96493.31
2023-04-23T16:10:34.637Z,96487.44
2023-04-23T16:13:03.507Z,96493.41
2023-04-23T16:15:31.992Z,96495.47
2023-04-23T16:18:01.958Z,96495.47
2023-04-23T16:20:30.600Z,96497.09
2023-04-23T16:22:59.049Z,96489.28
2023-04-23T16:25:27.491Z,96488.13
2023-04-23T16:27:56.771Z,96488.13
2023-04-23T16:30:25.649Z,96473.53
2023-04-23T16:32:54.118Z,96469.28
2023-04-23T16:35:24.008Z,96471.72
2023-04-23T16:37:52.578Z,96482.38
2023-04-23T16:40:21.527Z,96474.91
2023-04-23T16:42:50.063Z,96470.66
2023-04-23T16:45:22.753Z,96467.91
2023-04-23T16:47:51.415Z,96475.03
2023-04-23T16:50:19.933Z,96489.97
2023-04-23T16:52:49.727Z,96577.84
2023-04-23T16:55:18.524Z,96631.03
2023-04-23T16:57:47.229Z,96652.75
2023-04-23T17:00:16.578Z,96665.03
2023-04-23T17:02:45.157Z,96642.97
2023-04-23T17:05:13.742Z,96630.34
2023-04-23T17:07:43.886Z,96613.00
2023-04-23T17:10:15.378Z,96601.84
2023-04-23T17:12:43.869Z,96601.84
2023-04-23T17:15:12.706Z,96595.53
2023-04-23T17:17:41.238Z,96590.00
2023-04-23T17:20:10.242Z,96596.34
2023-04-23T17:22:38.708Z,96594.03
2023-04-23T17:25:08.254Z,96594.50
2023-04-23T17:27:38.143Z,96587.03
2023-04-23T17:30:08.041Z,96588.97
2023-04-23T17:32:36.538Z,96587.84
2023-04-23T17:35:10.683Z,96586.69
2023-04-23T17:37:39.931Z,96586.69
2023-04-23T17:40:10.655Z,96584.72
2023-04-23T17:42:40.548Z,96585.53
2023-04-23T17:45:11.441Z,96581.63
2023-04-23T17:47:40.972Z,96571.41
2023-04-23T17:50:11.696Z,96578.53
2023-04-23T17:52:41.103Z,96577.38
2023-04-23T17:55:09.857Z,96579.34
2023-04-23T17:57:38.418Z,96580.94
2023-04-23T18:00:12.148Z,96570.72
2023-04-23T18:02:41.338Z,96569.22
2023-04-23T18:05:10.580Z,96573.94
2023-04-23T18:07:39.761Z,96578.66
2023-04-23T18:10:10.344Z,96573.13
2023-04-23T18:12:39.462Z,96573.13
2023-04-23T18:15:12.331Z,96576.34
2023-04-23T18:17:41.105Z,96570.84
2023-04-23T18:20:10.202Z,96577.97
2023-04-23T18:22:39.381Z,96576.34
2023-04-23T18:25:09.941Z,96579.13
2023-04-23T18:27:38.418Z,96589.00
2023-04-23T18:30:09.654Z,96584.28
2023-04-23T18:32:44.292Z,96583.47
2023-04-23T18:35:12.829Z,96586.22
2023-04-23T18:37:44.721Z,96585.09
2023-04-23T18:40:13.262Z,96589.44
2023-04-23T18:42:41.647Z,96592.22
2023-04-23T18:45:12.127Z,96593.81
2023-04-23T18:47:45.413Z,96597.38
2023-04-23T18:50:32.031Z,96606.47
2023-04-23T18:53:00.433Z,96603.69
2023-04-23T18:55:28.911Z,96602.59
2023-04-23T18:57:57.373Z,96613.63
2023-04-23T19:00:27.296Z,96626.56
2023-04-23T19:02:56.002Z,96628.53
2023-04-23T19:05:24.636Z,96646.72
2023-04-23T19:07:53.214Z,96631.78
2023-04-23T19:10:21.732Z,96620.25
2023-04-23T19:12:50.798Z,96648.97
2023-04-23T19:15:19.294Z,96637.94
2023-04-23T19:17:49.211Z,96644.59
2023-04-23T19:20:18.678Z,96658.41
2023-04-23T19:22:47.207Z,96642.66
2023-04-23T19:25:15.735Z,96644.59
2023-04-23T19:27:44.268Z,96655.28
2023-04-23T19:30:13.111Z,96651.72
2023-04-23T19:32:41.682Z,96645.88
2023-04-23T19:35:11.845Z,96645.88
2023-04-23T19:37:40.231Z,96652.22
2023-04-23T19:40:10.686Z,96643.94
2023-04-23T19:42:39.160Z,96655.28
2023-04-23T19:45:08.677Z,96650.59
2023-04-23T19:47:38.729Z,96650.59
2023-04-23T19:50:09.589Z,96661.63
2023-04-23T19:52:39.443Z,96666.31
2023-04-23T19:55:08.924Z,96668.78
2023-04-23T19:57:37.655Z,96683.38
2023-04-23T20:00:07.319Z,96699.09
2023-04-23T20:02:36.238Z,96713.69
2023-04-23T20:05:05.821Z,96712.91
2023-04-23T20:07:34.676Z,96709.00
2023-04-23T20:10:05.230Z,96720.81
2023-04-23T20:12:33.952Z,96696.81
2023-04-23T20:15:02.419Z,96706.22
2023-04-23T20:17:30.942Z,96713.69
2023-04-23T20:20:01.994Z,96734.97
2023-04-23T20:22:31.052Z,96748.25
2023-04-23T20:25:01.809Z,96759.97
2023-04-23T20:27:31.937Z,96761.44
2023-04-23T20:30:00.576Z,96755.81
2023-04-23T20:32:29.020Z,96756.16
2023-04-23T20:34:58.882Z,96760.38
2023-04-23T20:37:28.471Z,96750.50
2023-04-23T20:39:58.352Z,96758.31
2023-04-23T20:42:28.991Z,96755.88
2023-04-23T20:44:58.839Z,96750.72
2023-04-23T20:47:27.889Z,96750.25
2023-04-23T20:49:56.288Z,96744.75
2023-04-23T20:52:24.734Z,96740.38
2023-04-23T20:54:53.125Z,96732.44
2023-04-23T20:57:21.706Z,96726.13
2023-04-23T20:59:50.203Z,96735.53
2023-04-23T21:02:20.237Z,96732.78
2023-04-23T21:04:48.743Z,96740.56
2023-04-23T21:07:17.209Z,96729.09
2023-04-23T21:09:45.742Z,96726.66
2023-04-23T21:12:14.416Z,96730.56
2023-04-23T21:14:43.042Z,96726.19
2023-04-23T21:17:11.675Z,96714.03
2023-04-23T21:19:41.595Z,96713.69
2023-04-23T21:22:10.768Z,96719.66
2023-04-23T21:24:39.266Z,96720.47
2023-04-23T21:27:07.922Z,96717.38
2023-04-23T21:29:36.581Z,96723.34
2023-04-23T21:32:05.108Z,96718.31
2023-04-23T21:34:33.495Z,96717.16
2023-04-23T21:37:03.325Z,96715.56
2023-04-23T21:39:33.231Z,96715.09
2023-04-23T21:42:01.804Z,96710.25
2023-04-23T21:44:31.141Z,96708.19
2023-04-23T21:46:59.625Z,96713.22
2023-04-23T21:49:28.058Z,96713.91
2023-04-23T21:51:56.706Z,96721.72
2023-04-23T21:54:26.655Z,96722.41
2023-04-23T21:56:55.234Z,96713.69
2023-04-23T21:59:24.752Z,96714.34
2023-04-23T22:01:53.357Z,96724.91
2023-04-23T22:04:22.369Z,96718.94
2023-04-23T22:06:51.199Z,96717.31
2023-04-23T22:09:19.683Z,96714.09
2023-04-23T22:12:01.127Z,96710.06
2023-04-23T22:14:31.112Z,96720.28
2023-04-23T22:16:59.767Z,96707.66
2023-04-23T22:19:28.670Z,96706.03
2023-04-23T22:21:57.258Z,96708.78
2023-04-23T22:24:25.884Z,96708.31
2023-04-23T22:26:55.786Z,96694.88
2023-04-23T22:29:24.274Z,96694.88
2023-04-23T22:31:52.834Z,96703.50
2023-04-23T22:34:21.402Z,96696.38
2023-04-23T22:36:49.970Z,96703.03
2023-04-23T22:39:18.693Z,96705.78
2023-04-23T22:41:47.419Z,96701.41
2023-04-23T22:44:17.176Z,96703.34
2023-04-23T22:46:45.754Z,96694.63
2023-04-23T22:49:14.301Z,96700.94
2023-04-23T22:51:43.797Z,96700.13
2023-04-23T22:54:12.212Z,96693.00
2023-04-23T22:56:40.676Z,96685.09
2023-04-23T22:59:09.670Z,96694.16
2023-04-23T23:01:39.531Z,96694.97
2023-04-23T23:04:08.214Z,96687.84
2023-04-23T23:06:36.685Z,96678.78
2023-04-23T23:09:05.258Z,96677.97
2023-04-23T23:11:33.679Z,96672.47
2023-04-23T23:14:02.205Z,96665.81
2023-04-23T23:16:31.440Z,96668.56
2023-04-23T23:19:01.177Z,96671.66
2023-04-23T23:21:29.724Z,96665.34
2023-04-23T23:23:58.247Z,96665.34
2023-04-23T23:26:26.770Z,96665.34
2023-04-23T23:28:55.666Z,96669.22
2023-04-23T23:31:25.831Z,96651.09
2023-04-23T23:33:54.741Z,96658.22
2023-04-23T23:36:24.661Z,96655.47
2023-04-23T23:38:53.101Z,96656.59
2023-04-23T23:41:21.621Z,96651.09
2023-04-23T23:43:50.180Z,96647.88
2023-04-23T23:46:19.924Z,96643.97
2023-04-23T23:48:48.669Z,96636.84
2023-04-23T23:51:17.246Z,96638.00
2023-04-23T23:53:47.146Z,96635.25
2023-04-23T23:56:15.863Z,96635.25
2023-04-23T23:58:44.358Z,96646.25
